Time;durP1;ratioP1;P1;durP2;ratioP2;P2;SDS_P1;SDS_P2;PMS_P1;PMS_P2;Temp;Humidity;BMP_temperature;BMP_pressure;BME280_temperature;BME280_humidity;BME280_pressure;Samples;Min_cycle;Max_cycle;Signal;HPM_P1;HPM_P2
2022/02/25 00:01:18;;;;;;;13.37;5.40;;;;;;;;;;765188;184;612988;-60
2022/02/25 00:03:43;;;;;;;8.63;5.27;;;;;;;;;;761647;183;624143;-60
2022/02/25 00:06:09;;;;;;;11.30;5.70;;;;;;;;;;757809;184;633744;-61
2022/02/25 00:08:35;;;;;;;15.93;5.10;;;;;;;;;;760035;183;623107;-60
2022/02/25 00:11:01;;;;;;;8.93;5.10;;;;;;;;;;760728;184;634176;-61
2022/02/25 00:13:27;;;;;;;6.93;4.20;;;;;;;;;;755082;184;627051;-60
2022/02/25 00:15:57;;;;;;;8.37;4.20;;;;;;;;;;764763;183;618487;-61
2022/02/25 00:18:18;;;;;;;7.03;5.00;;;;;;;;;;753575;183;620844;-61
2022/02/25 00:20:44;;;;;;;7.57;3.80;;;;;;;;;;753630;184;636326;-60
2022/02/25 00:23:10;;;;;;;9.87;5.00;;;;;;;;;;751631;183;618988;-60
2022/02/25 00:25:36;;;;;;;7.27;4.70;;;;;;;;;;765455;184;665069;-60
2022/02/25 00:28:02;;;;;;;9.07;4.70;;;;;;;;;;748729;184;617760;-61
2022/02/25 00:30:28;;;;;;;10.30;5.17;;;;;;;;;;748004;184;634070;-61
2022/02/25 00:32:53;;;;;;;13.20;4.50;;;;;;;;;;755324;184;613978;-60
2022/02/25 00:35:19;;;;;;;8.57;4.57;;;;;;;;;;750599;184;615767;-61
2022/02/25 00:37:45;;;;;;;10.20;5.03;;;;;;;;;;759201;183;634282;-60
2022/02/25 00:40:11;;;;;;;9.67;4.80;;;;;;;;;;760438;184;619856;-61
2022/02/25 00:42:37;;;;;;;10.83;6.20;;;;;;;;;;750759;185;633924;-60
2022/02/25 00:45:03;;;;;;;10.90;5.20;;;;;;;;;;760063;184;635625;-61
2022/02/25 00:47:29;;;;;;;14.20;6.03;;;;;;;;;;754063;184;692061;-61
2022/02/25 00:49:55;;;;;;;10.77;5.07;;;;;;;;;;764427;181;644889;-60
2022/02/25 00:52:20;;;;;;;11.77;5.45;;;;;;;;;;752369;184;625506;-60
2022/02/25 00:54:46;;;;;;;8.43;4.60;;;;;;;;;;752775;184;625345;-61
2022/02/25 00:57:12;;;;;;;9.27;4.53;;;;;;;;;;760178;184;617766;-60
2022/02/25 00:59:38;;;;;;;14.23;6.40;;;;;;;;;;758550;183;633074;-61
2022/02/25 01:02:04;;;;;;;8.97;4.63;;;;;;;;;;752438;185;637821;-61
2022/02/25 01:04:30;;;;;;;6.93;4.03;;;;;;;;;;763958;183;620009;-61
2022/02/25 01:06:56;;;;;;;8.60;4.80;;;;;;;;;;750260;184;628327;-60
2022/02/25 01:09:21;;;;;;;6.50;4.40;;;;;;;;;;753476;183;635063;-60
2022/02/25 01:11:47;;;;;;;11.63;4.80;;;;;;;;;;758358;184;747993;-60
2022/02/25 01:14:13;;;;;;;11.70;4.87;;;;;;;;;;757387;184;727585;-61
2022/02/25 01:16:39;;;;;;;5.60;4.43;;;;;;;;;;754043;184;639155;-61
2022/02/25 01:19:05;;;;;;;12.40;5.00;;;;;;;;;;757363;183;631491;-60
2022/02/25 01:21:31;;;;;;;9.93;5.80;;;;;;;;;;759186;184;620156;-61
2022/02/25 01:23:57;;;;;;;7.27;4.67;;;;;;;;;;754916;184;639561;-60
2022/02/25 01:26:22;;;;;;;7.20;4.00;;;;;;;;;;761569;184;626588;-60
2022/02/25 01:28:48;;;;;;;8.77;4.67;;;;;;;;;;763731;184;615381;-61
2022/02/25 01:31:14;;;;;;;8.98;5.30;;;;;;;;;;753611;183;635072;-61
2022/02/25 01:33:40;;;;;;;7.70;4.80;;;;;;;;;;752842;183;640811;-61
2022/02/25 01:36:06;;;;;;;10.27;5.43;;;;;;;;;;758671;184;619781;-60
2022/02/25 01:38:32;;;;;;;10.33;5.50;;;;;;;;;;755993;184;627776;-61
2022/02/25 01:40:59;;;;;;;9.57;5.63;;;;;;;;;;752281;184;626285;-60
2022/02/25 01:43:23;;;;;;;7.03;4.63;;;;;;;;;;746080;184;627025;-60
2022/02/25 01:45:49;;;;;;;9.67;4.93;;;;;;;;;;773797;181;634077;-60
2022/02/25 01:48:15;;;;;;;12.33;5.37;;;;;;;;;;762917;184;627155;-61
2022/02/25 01:50:41;;;;;;;11.30;5.23;;;;;;;;;;749541;185;639982;-61
2022/02/25 01:53:07;;;;;;;8.13;5.10;;;;;;;;;;758175;185;620869;-60
2022/02/25 01:55:33;;;;;;;10.63;5.17;;;;;;;;;;758369;184;615177;-61
2022/02/25 01:57:58;;;;;;;7.93;4.90;;;;;;;;;;760215;183;621003;-61
2022/02/25 02:00:24;;;;;;;11.37;5.10;;;;;;;;;;759701;183;613358;-60
2022/02/25 02:02:50;;;;;;;9.10;5.20;;;;;;;;;;753394;183;626307;-60
2022/02/25 02:05:16;;;;;;;12.90;6.40;;;;;;;;;;748829;184;646279;-61
2022/02/25 02:07:42;;;;;;;10.63;5.63;;;;;;;;;;755110;185;627370;-60
2022/02/25 02:10:08;;;;;;;13.77;5.30;;;;;;;;;;755100;183;630424;-61
2022/02/25 02:12:34;;;;;;;10.67;5.20;;;;;;;;;;755286;183;637282;-61
2022/02/25 02:14:59;;;;;;;9.80;5.53;;;;;;;;;;755170;184;638218;-60
2022/02/25 02:17:25;;;;;;;12.93;5.97;;;;;;;;;;765023;183;626838;-61
2022/02/25 02:19:51;;;;;;;9.17;4.93;;;;;;;;;;754984;183;628064;-61
2022/02/25 02:22:17;;;;;;;7.47;5.17;;;;;;;;;;760561;184;630436;-61
2022/02/25 02:24:43;;;;;;;10.03;5.10;;;;;;;;;;763130;184;632997;-61
2022/02/25 02:27:09;;;;;;;11.10;6.10;;;;;;;;;;765764;184;622829;-61
2022/02/25 02:29:34;;;;;;;8.80;5.30;;;;;;;;;;759732;183;620646;-61
2022/02/25 02:32:00;;;;;;;10.37;5.30;;;;;;;;;;760788;184;623883;-61
2022/02/25 02:34:26;;;;;;;12.10;5.50;;;;;;;;;;753650;184;639372;-61
2022/02/25 02:36:52;;;;;;;12.88;6.55;;;;;;;;;;760283;184;634364;-62
2022/02/25 02:39:18;;;;;;;11.50;5.87;;;;;;;;;;762024;184;629199;-61
2022/02/25 02:41:44;;;;;;;13.83;5.73;;;;;;;;;;760843;183;630402;-62
2022/02/25 02:44:10;;;;;;;9.93;5.90;;;;;;;;;;760996;184;626665;-60
2022/02/25 02:46:36;;;;;;;15.03;5.20;;;;;;;;;;753448;184;626833;-61
2022/02/25 02:49:02;;;;;;;10.17;5.93;;;;;;;;;;753134;185;627093;-60
2022/02/25 02:51:29;;;;;;;10.50;5.60;;;;;;;;;;753269;184;692958;-61
2022/02/25 02:53:53;;;;;;;9.53;5.87;;;;;;;;;;751991;184;631742;-61
2022/02/25 02:56:19;;;;;;;12.73;7.63;;;;;;;;;;760053;184;627427;-61
2022/02/25 02:58:46;;;;;;;10.40;5.00;;;;;;;;;;756975;184;630835;-61
2022/02/25 03:01:11;;;;;;;12.50;5.23;;;;;;;;;;755091;186;628464;-61
2022/02/25 03:03:37;;;;;;;11.27;5.70;;;;;;;;;;763035;184;630358;-60
2022/02/25 03:06:02;;;;;;;10.97;5.20;;;;;;;;;;749702;184;628616;-61
2022/02/25 03:08:28;;;;;;;10.97;5.57;;;;;;;;;;753740;185;630488;-61
2022/02/25 03:10:54;;;;;;;16.33;6.03;;;;;;;;;;748832;184;740828;-60
2022/02/25 03:13:20;;;;;;;11.23;5.77;;;;;;;;;;760176;182;644563;-60
2022/02/25 03:15:46;;;;;;;7.37;5.13;;;;;;;;;;756281;184;636548;-59
2022/02/25 03:18:12;;;;;;;8.07;4.50;;;;;;;;;;763274;184;622166;-60
2022/02/25 03:20:38;;;;;;;7.85;4.85;;;;;;;;;;754818;184;639953;-59
2022/02/25 03:23:03;;;;;;;9.33;5.07;;;;;;;;;;757374;183;638532;-60
2022/02/25 03:25:29;;;;;;;12.00;4.93;;;;;;;;;;752994;183;633258;-60
2022/02/25 03:27:55;;;;;;;7.03;4.30;;;;;;;;;;756121;183;684727;-60
2022/02/25 03:30:21;;;;;;;9.93;5.37;;;;;;;;;;759633;183;725613;-60
2022/02/25 03:32:47;;;;;;;9.10;5.30;;;;;;;;;;759347;184;625933;-60
2022/02/25 03:35:13;;;;;;;21.43;5.97;;;;;;;;;;757640;184;644711;-60
2022/02/25 03:37:39;;;;;;;13.90;6.17;;;;;;;;;;749860;185;624998;-60
2022/02/25 03:40:05;;;;;;;11.03;5.70;;;;;;;;;;753014;184;629965;-60
2022/02/25 03:42:31;;;;;;;9.07;5.00;;;;;;;;;;752489;184;629983;-61
2022/02/25 03:44:57;;;;;;;7.50;4.60;;;;;;;;;;761097;184;614193;-61
2022/02/25 03:47:22;;;;;;;11.20;4.70;;;;;;;;;;763241;184;624359;-60
2022/02/25 03:49:48;;;;;;;8.23;4.37;;;;;;;;;;758501;183;636594;-60
2022/02/25 03:52:14;;;;;;;10.83;4.93;;;;;;;;;;756956;183;613353;-60
2022/02/25 03:54:40;;;;;;;9.60;4.60;;;;;;;;;;757121;184;622501;-60
2022/02/25 03:57:06;;;;;;;11.33;6.27;;;;;;;;;;749789;184;618801;-61
2022/02/25 03:59:32;;;;;;;14.53;5.83;;;;;;;;;;761359;183;616397;-61
2022/02/25 04:01:57;;;;;;;9.30;5.23;;;;;;;;;;756835;183;632534;-61
2022/02/25 04:04:23;;;;;;;16.57;5.80;;;;;;;;;;760268;184;652113;-59
2022/02/25 04:06:49;;;;;;;13.67;5.53;;;;;;;;;;758823;184;624367;-60
2022/02/25 04:09:19;;;;;;;16.98;7.05;;;;;;;;;;758133;184;625159;-60
2022/02/25 04:11:45;;;;;;;8.57;5.97;;;;;;;;;;751456;184;623864;-61
2022/02/25 04:14:11;;;;;;;8.40;5.33;;;;;;;;;;757439;184;629135;-60
2022/02/25 04:16:37;;;;;;;18.23;5.30;;;;;;;;;;759837;184;623103;-61
2022/02/25 04:19:04;;;;;;;12.53;6.17;;;;;;;;;;761291;184;626527;-60
2022/02/25 04:21:29;;;;;;;11.70;6.30;;;;;;;;;;751464;184;628325;-60
2022/02/25 04:23:55;;;;;;;9.97;6.13;;;;;;;;;;760025;184;613640;-60
2022/02/25 04:26:21;;;;;;;10.63;5.60;;;;;;;;;;751807;184;628644;-61
2022/02/25 04:28:46;;;;;;;9.57;5.43;;;;;;;;;;757731;184;613914;-61
2022/02/25 04:31:12;;;;;;;11.20;5.97;;;;;;;;;;764103;183;631956;-60
2022/02/25 04:33:38;;;;;;;10.73;5.63;;;;;;;;;;765126;181;630407;-60
2022/02/25 04:36:04;;;;;;;15.40;7.40;;;;;;;;;;758945;183;629953;-61
2022/02/25 04:38:30;;;;;;;8.40;4.73;;;;;;;;;;756067;183;630034;-60
2022/02/25 04:41:01;;;;;;;11.90;6.33;;;;;;;;;;762402;183;630081;-60
2022/02/25 04:43:21;;;;;;;13.50;5.53;;;;;;;;;;762942;184;635333;-60
2022/02/25 04:45:49;;;;;;;10.80;6.83;;;;;;;;;;753659;184;624490;-60
2022/02/25 04:48:13;;;;;;;11.03;6.00;;;;;;;;;;756759;184;623209;-61
2022/02/25 04:50:39;;;;;;;15.10;6.07;;;;;;;;;;755736;184;627029;-60
2022/02/25 04:53:05;;;;;;;13.67;6.57;;;;;;;;;;758572;184;633797;-60
2022/02/25 04:55:31;;;;;;;7.63;5.37;;;;;;;;;;755337;184;643145;-61
2022/02/25 04:57:56;;;;;;;11.17;6.73;;;;;;;;;;767066;183;626309;-60
2022/02/25 05:00:23;;;;;;;8.20;6.00;;;;;;;;;;756408;183;631936;-61
2022/02/25 05:02:48;;;;;;;10.00;5.03;;;;;;;;;;751990;184;662101;-60
2022/02/25 05:05:14;;;;;;;14.30;5.50;;;;;;;;;;760793;184;627731;-61
2022/02/25 05:07:40;;;;;;;8.47;5.03;;;;;;;;;;759253;184;643854;-60
2022/02/25 05:10:06;;;;;;;10.80;5.50;;;;;;;;;;755237;184;633410;-60
2022/02/25 05:12:32;;;;;;;8.90;5.17;;;;;;;;;;761563;184;626434;-60
2022/02/25 05:22:33;;;;;;;10.90;5.80;;;;;;;;;;755886;184;638551;-61
2022/02/25 05:24:58;;;;;;;10.07;6.03;;;;;;;;;;760953;184;628904;-60
2022/02/25 05:27:24;;;;;;;11.27;7.80;;;;;;;;;;752839;184;636007;-60
2022/02/25 05:29:50;;;;;;;14.80;7.13;;;;;;;;;;756699;184;633014;-60
2022/02/25 05:32:16;;;;;;;12.90;5.77;;;;;;;;;;757697;185;697065;-60
2022/02/25 05:34:42;;;;;;;16.40;6.70;;;;;;;;;;756983;184;620158;-60
2022/02/25 05:37:08;;;;;;;7.20;5.30;;;;;;;;;;758006;184;625504;-61
2022/02/25 05:39:35;;;;;;;6.73;4.83;;;;;;;;;;760033;184;824157;-61
2022/02/25 05:42:00;;;;;;;14.23;4.10;;;;;;;;;;753404;184;631492;-60
2022/02/25 05:44:26;;;;;;;8.80;4.33;;;;;;;;;;757144;184;631376;-60
2022/02/25 05:46:52;;;;;;;6.83;3.73;;;;;;;;;;765522;181;624207;-60
2022/02/25 05:49:17;;;;;;;6.97;3.90;;;;;;;;;;758040;183;737835;-60
2022/02/25 05:51:43;;;;;;;9.20;3.00;;;;;;;;;;753001;184;618086;-60
2022/02/25 05:54:09;;;;;;;3.93;2.30;;;;;;;;;;754055;183;626565;-60
2022/02/25 05:56:35;;;;;;;4.20;1.93;;;;;;;;;;759482;181;618600;-61
2022/02/25 05:59:01;;;;;;;2.70;1.60;;;;;;;;;;755076;184;628757;-61
2022/02/25 06:01:27;;;;;;;4.37;2.13;;;;;;;;;;753352;184;633180;-61
2022/02/25 06:03:54;;;;;;;4.47;2.27;;;;;;;;;;757157;184;626446;-60
2022/02/25 06:06:18;;;;;;;4.40;2.00;;;;;;;;;;756195;184;637949;-60
2022/02/25 06:08:44;;;;;;;4.73;1.80;;;;;;;;;;753649;184;639126;-61
2022/02/25 06:11:10;;;;;;;4.97;1.60;;;;;;;;;;762509;183;628520;-60
2022/02/25 06:13:36;;;;;;;3.57;2.00;;;;;;;;;;762937;184;696989;-61
2022/02/25 06:16:02;;;;;;;4.07;1.50;;;;;;;;;;756992;184;659188;-60
2022/02/25 06:18:28;;;;;;;2.05;1.05;;;;;;;;;;757971;184;628765;-61
2022/02/25 06:20:54;;;;;;;3.50;1.60;;;;;;;;;;759289;183;619181;-60
2022/02/25 06:23:22;;;;;;;3.60;1.70;;;;;;;;;;753988;184;629231;-61
2022/02/25 06:25:45;;;;;;;4.23;1.60;;;;;;;;;;749332;184;1167959;-61
2022/02/25 06:28:11;;;;;;;2.60;1.57;;;;;;;;;;762738;184;624161;-60
2022/02/25 06:30:37;;;;;;;3.23;1.53;;;;;;;;;;752839;184;630881;-61
2022/02/25 06:33:03;;;;;;;2.90;1.50;;;;;;;;;;756160;183;616833;-61
2022/02/25 06:35:29;;;;;;;3.23;1.90;;;;;;;;;;763925;184;635808;-60
2022/02/25 06:37:55;;;;;;;2.20;1.43;;;;;;;;;;754617;184;628129;-60
2022/02/25 06:40:20;;;;;;;3.83;1.73;;;;;;;;;;757356;184;614562;-60
2022/02/25 06:42:46;;;;;;;7.63;1.67;;;;;;;;;;758458;185;615591;-61
2022/02/25 06:45:12;;;;;;;3.30;1.70;;;;;;;;;;761448;184;620890;-60
2022/02/25 06:47:38;;;;;;;3.00;1.60;;;;;;;;;;759176;184;615991;-61
2022/02/25 06:50:04;;;;;;;4.73;1.90;;;;;;;;;;763300;184;623317;-60
2022/02/25 06:52:30;;;;;;;2.70;1.60;;;;;;;;;;754469;184;634041;-60
2022/02/25 06:54:56;;;;;;;11.53;1.80;;;;;;;;;;750265;184;632901;-61
2022/02/25 06:57:22;;;;;;;2.87;1.70;;;;;;;;;;767190;183;625134;-61
2022/02/25 06:59:48;;;;;;;4.63;2.70;;;;;;;;;;758157;183;624041;-61
2022/02/25 07:02:13;;;;;;;12.73;8.67;;;;;;;;;;742677;187;715243;-60
2022/02/25 07:04:39;;;;;;;6.10;3.03;;;;;;;;;;745433;184;633290;-60
2022/02/25 07:07:05;;;;;;;5.45;3.25;;;;;;;;;;751548;184;618098;-62
2022/02/25 07:09:31;;;;;;;3.80;2.47;;;;;;;;;;757047;184;625441;-61
2022/02/25 07:11:57;;;;;;;4.50;2.13;;;;;;;;;;759307;184;629267;-60
2022/02/25 07:14:23;;;;;;;4.07;2.23;;;;;;;;;;762654;184;618847;-61
2022/02/25 07:16:48;;;;;;;3.17;2.17;;;;;;;;;;755142;183;624375;-61
2022/02/25 07:19:14;;;;;;;3.77;2.70;;;;;;;;;;755416;184;632070;-60
2022/02/25 07:21:40;;;;;;;5.80;3.13;;;;;;;;;;752721;183;631004;-61
2022/02/25 07:24:06;;;;;;;4.27;2.97;;;;;;;;;;759342;183;622398;-60
2022/02/25 07:26:32;;;;;;;4.80;3.30;;;;;;;;;;752325;183;621270;-60
2022/02/25 07:28:58;;;;;;;6.17;3.33;;;;;;;;;;750921;183;635092;-61
2022/02/25 07:31:23;;;;;;;4.97;2.87;;;;;;;;;;754190;185;625229;-60
2022/02/25 07:33:49;;;;;;;4.13;2.87;;;;;;;;;;752744;184;629145;-61
2022/02/25 07:36:15;;;;;;;4.40;2.73;;;;;;;;;;751520;184;623738;-60
2022/02/25 07:38:41;;;;;;;3.43;2.70;;;;;;;;;;753456;184;642061;-60
2022/02/25 07:41:07;;;;;;;4.00;2.90;;;;;;;;;;751114;184;627324;-60
2022/02/25 07:43:33;;;;;;;10.10;5.27;;;;;;;;;;751759;184;617209;-60
2022/02/25 07:45:58;;;;;;;4.63;3.50;;;;;;;;;;752268;184;615977;-61
2022/02/25 07:48:24;;;;;;;8.60;3.50;;;;;;;;;;752823;184;684146;-61
2022/02/25 07:50:50;;;;;;;5.10;3.30;;;;;;;;;;750937;184;631052;-61
2022/02/25 07:53:16;;;;;;;4.33;3.40;;;;;;;;;;748398;184;632484;-60
2022/02/25 07:55:42;;;;;;;3.73;2.80;;;;;;;;;;757454;185;633694;-60
2022/02/25 07:58:08;;;;;;;5.30;2.57;;;;;;;;;;755307;184;625006;-60
2022/02/25 08:00:33;;;;;;;7.60;4.07;;;;;;;;;;760226;183;639421;-60
2022/02/25 08:03:01;;;;;;;4.50;2.80;;;;;;;;;;751691;185;614596;-60
2022/02/25 08:05:25;;;;;;;4.67;3.43;;;;;;;;;;753778;186;625118;-59
2022/02/25 08:07:51;;;;;;;4.10;2.57;;;;;;;;;;754186;184;616915;-61
2022/02/25 08:10:17;;;;;;;4.83;3.17;;;;;;;;;;758334;183;637518;-60
2022/02/25 08:12:43;;;;;;;5.30;3.60;;;;;;;;;;754125;184;633302;-59
2022/02/25 08:15:09;;;;;;;4.40;3.17;;;;;;;;;;761935;183;627516;-61
2022/02/25 08:17:35;;;;;;;6.70;3.67;;;;;;;;;;757768;184;636590;-60
2022/02/25 08:20:01;;;;;;;5.00;2.60;;;;;;;;;;763935;184;619506;-61
2022/02/25 08:22:27;;;;;;;4.60;3.13;;;;;;;;;;758308;184;623315;-60
2022/02/25 08:24:52;;;;;;;2.90;2.10;;;;;;;;;;759691;184;623987;-60
2022/02/25 08:27:18;;;;;;;5.00;3.40;;;;;;;;;;760512;184;625583;-60
2022/02/25 08:29:44;;;;;;;3.70;2.50;;;;;;;;;;748867;184;637410;-63
2022/02/25 08:32:10;;;;;;;4.33;2.87;;;;;;;;;;746741;183;617551;-62
2022/02/25 08:34:36;;;;;;;4.13;2.73;;;;;;;;;;758199;183;609104;-60
2022/02/25 08:37:02;;;;;;;3.20;2.27;;;;;;;;;;758662;184;720607;-60
2022/02/25 08:39:27;;;;;;;7.50;3.20;;;;;;;;;;756320;184;692038;-61
2022/02/25 08:41:54;;;;;;;5.80;3.00;;;;;;;;;;755692;184;639907;-60
2022/02/25 08:44:19;;;;;;;4.27;2.63;;;;;;;;;;756102;183;683139;-61
2022/02/25 08:46:47;;;;;;;5.70;2.77;;;;;;;;;;759576;183;686048;-61
2022/02/25 08:49:11;;;;;;;5.00;3.30;;;;;;;;;;755019;183;616032;-60
2022/02/25 08:51:37;;;;;;;4.53;2.70;;;;;;;;;;760766;183;628736;-61
2022/02/25 08:54:04;;;;;;;6.30;2.53;;;;;;;;;;756226;183;715115;-60
2022/02/25 08:56:29;;;;;;;5.07;3.20;;;;;;;;;;762892;183;644593;-60
2022/02/25 08:58:55;;;;;;;6.33;2.80;;;;;;;;;;755158;184;634141;-60
2022/02/25 09:01:22;;;;;;;5.70;2.57;;;;;;;;;;756545;184;636193;-60
2022/02/25 09:03:46;;;;;;;3.50;2.30;;;;;;;;;;753666;184;631288;-60
2022/02/25 09:06:14;;;;;;;3.77;2.60;;;;;;;;;;760925;184;617097;-60
2022/02/25 09:08:38;;;;;;;8.20;2.13;;;;;;;;;;755261;183;631543;-61
2022/02/25 09:11:04;;;;;;;7.20;2.43;;;;;;;;;;749158;184;620326;-61
2022/02/25 09:13:30;;;;;;;4.37;2.40;;;;;;;;;;753939;184;618561;-61
2022/02/25 09:15:55;;;;;;;8.57;2.63;;;;;;;;;;759770;184;614603;-60
2022/02/25 09:18:21;;;;;;;4.43;2.37;;;;;;;;;;757141;184;623544;-60
2022/02/25 09:20:47;;;;;;;3.50;1.90;;;;;;;;;;761286;182;640114;-61
2022/02/25 09:23:13;;;;;;;4.20;2.57;;;;;;;;;;759147;183;629281;-60
2022/02/25 09:25:39;;;;;;;3.73;2.10;;;;;;;;;;759244;183;630354;-60
2022/02/25 09:28:05;;;;;;;3.57;2.23;;;;;;;;;;766521;183;642237;-59
2022/02/25 09:30:30;;;;;;;3.37;2.00;;;;;;;;;;768054;183;616507;-60
2022/02/25 09:32:57;;;;;;;5.03;2.30;;;;;;;;;;758303;184;633760;-59
2022/02/25 09:35:22;;;;;;;2.90;2.00;;;;;;;;;;755605;184;632956;-59
2022/02/25 09:37:48;;;;;;;3.90;1.97;;;;;;;;;;753953;183;636558;-59
2022/02/25 09:40:14;;;;;;;3.97;2.27;;;;;;;;;;768844;182;646067;-59
2022/02/25 09:42:39;;;;;;;7.47;2.10;;;;;;;;;;749244;183;634986;-60
2022/02/25 09:45:05;;;;;;;6.17;2.50;;;;;;;;;;754923;183;629737;-59
2022/02/25 09:47:33;;;;;;;3.47;2.40;;;;;;;;;;760220;184;613946;-60
2022/02/25 09:49:57;;;;;;;4.77;1.93;;;;;;;;;;755248;184;662121;-59
2022/02/25 09:52:23;;;;;;;3.77;2.27;;;;;;;;;;756488;184;640339;-59
2022/02/25 09:54:49;;;;;;;5.53;2.37;;;;;;;;;;761514;184;618209;-59
2022/02/25 09:57:15;;;;;;;4.60;2.50;;;;;;;;;;756309;184;628144;-59
2022/02/25 09:59:40;;;;;;;3.00;1.70;;;;;;;;;;750733;184;706369;-60
2022/02/25 10:02:06;;;;;;;9.33;2.53;;;;;;;;;;757782;184;615288;-60
2022/02/25 10:04:33;;;;;;;5.60;3.60;;;;;;;;;;753860;184;657829;-60
2022/02/25 10:06:59;;;;;;;5.37;2.47;;;;;;;;;;753866;184;627157;-60
2022/02/25 10:09:29;;;;;;;4.10;2.93;;;;;;;;;;755017;184;630851;-59
2022/02/25 10:11:57;;;;;;;4.20;2.57;;;;;;;;;;758647;184;622461;-59
2022/02/25 10:14:23;;;;;;;3.33;1.87;;;;;;;;;;757327;184;626978;-59
2022/02/25 10:16:49;;;;;;;3.70;2.47;;;;;;;;;;756756;184;637156;-59
2022/02/25 10:19:15;;;;;;;3.73;2.60;;;;;;;;;;754835;184;642906;-59
2022/02/25 10:21:41;;;;;;;3.70;1.90;;;;;;;;;;750809;184;635404;-60
2022/02/25 10:24:07;;;;;;;4.90;2.80;;;;;;;;;;752105;184;630160;-59
2022/02/25 10:26:33;;;;;;;3.43;2.07;;;;;;;;;;751791;184;771722;-59
2022/02/25 10:28:58;;;;;;;2.77;2.07;;;;;;;;;;757412;184;627242;-59
2022/02/25 10:31:28;;;;;;;2.60;1.60;;;;;;;;;;756509;183;615679;-62
2022/02/25 10:34:11;;;;;;;5.83;2.80;;;;;;;;;;758354;184;644456;-59
2022/02/25 10:36:40;;;;;;;5.27;2.60;;;;;;;;;;760039;183;760626;-59
2022/02/25 10:39:01;;;;;;;3.90;2.17;;;;;;;;;;759953;183;629885;-59
2022/02/25 10:41:27;;;;;;;4.23;3.23;;;;;;;;;;760369;184;634919;-60
2022/02/25 10:43:53;;;;;;;2.90;2.00;;;;;;;;;;753185;184;626337;-59
2022/02/25 10:46:19;;;;;;;2.83;2.27;;;;;;;;;;756692;184;632538;-59
2022/02/25 10:48:46;;;;;;;3.87;2.73;;;;;;;;;;762417;180;635946;-59
2022/02/25 10:51:11;;;;;;;4.43;2.40;;;;;;;;;;758141;184;649664;-60
2022/02/25 10:53:37;;;;;;;3.43;2.13;;;;;;;;;;755628;184;621503;-59
2022/02/25 10:56:08;;;;;;;6.83;3.17;;;;;;;;;;771297;183;627415;-59
2022/02/25 10:58:38;;;;;;;7.43;3.00;;;;;;;;;;755177;184;625020;-59
2022/02/25 11:01:04;;;;;;;4.43;2.07;;;;;;;;;;757551;184;623212;-59
2022/02/25 11:03:29;;;;;;;3.63;1.73;;;;;;;;;;756123;184;633626;-58
2022/02/25 11:05:55;;;;;;;5.90;2.57;;;;;;;;;;759704;184;628304;-60
2022/02/25 11:08:21;;;;;;;3.10;1.53;;;;;;;;;;755355;184;632607;-60
2022/02/25 11:10:47;;;;;;;5.17;2.30;;;;;;;;;;758043;184;652305;-59
2022/02/25 11:13:15;;;;;;;4.80;1.90;;;;;;;;;;758549;184;642781;-59
2022/02/25 11:15:42;;;;;;;3.90;2.10;;;;;;;;;;756539;184;621721;-59
2022/02/25 11:18:07;;;;;;;3.13;1.53;;;;;;;;;;757115;184;621062;-59
2022/02/25 11:20:31;;;;;;;5.67;3.13;;;;;;;;;;758548;184;614523;-58
2022/02/25 11:22:57;;;;;;;2.33;1.50;;;;;;;;;;761908;183;629187;-60
2022/02/25 11:25:23;;;;;;;2.90;1.40;;;;;;;;;;754936;183;617135;-59
2022/02/25 11:27:49;;;;;;;2.37;1.27;;;;;;;;;;754880;184;631844;-60
2022/02/25 11:30:15;;;;;;;1.90;1.00;;;;;;;;;;758533;184;615396;-59
2022/02/25 11:32:41;;;;;;;2.00;1.10;;;;;;;;;;756732;184;634970;-60
2022/02/25 11:35:11;;;;;;;2.60;1.00;;;;;;;;;;757156;184;622898;-61
2022/02/25 11:37:40;;;;;;;3.07;1.40;;;;;;;;;;757047;184;618401;-61
2022/02/25 11:40:06;;;;;;;2.40;1.40;;;;;;;;;;757173;184;628538;-61
2022/02/25 11:42:32;;;;;;;4.53;1.50;;;;;;;;;;754280;184;649365;-61
2022/02/25 11:45:04;;;;;;;2.55;1.40;;;;;;;;;;753725;184;638430;-60
2022/02/25 11:47:32;;;;;;;2.63;1.70;;;;;;;;;;752558;183;613268;-60
2022/02/25 11:49:58;;;;;;;2.30;1.33;;;;;;;;;;752227;183;699312;-60
2022/02/25 11:52:24;;;;;;;4.07;2.20;;;;;;;;;;758786;183;634069;-59
2022/02/25 11:54:50;;;;;;;2.80;1.50;;;;;;;;;;758261;183;642198;-60
2022/02/25 11:57:15;;;;;;;2.97;1.60;;;;;;;;;;752277;183;640542;-59
2022/02/25 11:59:56;;;;;;;2.50;1.50;;;;;;;;;;755580;184;640542;-59
2022/02/25 12:02:25;;;;;;;3.50;1.73;;;;;;;;;;758221;184;645215;-60
2022/02/25 12:05:08;;;;;;;7.30;1.30;;;;;;;;;;759657;183;621890;-59
2022/02/25 12:07:49;;;;;;;2.40;1.60;;;;;;;;;;752764;184;626499;-60
2022/02/25 12:10:14;;;;;;;3.30;1.43;;;;;;;;;;761520;184;728132;-59
2022/02/25 12:12:40;;;;;;;2.50;1.30;;;;;;;;;;762456;184;638156;-60
2022/02/25 12:15:06;;;;;;;2.43;1.23;;;;;;;;;;749357;184;630617;-60
2022/02/25 12:17:51;;;;;;;2.00;1.10;;;;;;;;;;754980;184;635280;-60
2022/02/25 12:20:20;;;;;;;3.10;1.00;;;;;;;;;;755185;184;632303;-60
2022/02/25 12:22:47;;;;;;;3.80;1.50;;;;;;;;;;755025;184;618051;-59
2022/02/25 12:25:13;;;;;;;3.57;1.90;;;;;;;;;;755560;184;635412;-59
2022/02/25 12:27:39;;;;;;;2.40;1.40;;;;;;;;;;757657;184;810031;-59
2022/02/25 12:30:21;;;;;;;1.80;0.93;;;;;;;;;;755338;184;740995;-59
2022/02/25 12:32:47;;;;;;;3.20;1.40;;;;;;;;;;755057;184;634979;-59
2022/02/25 12:35:13;;;;;;;3.67;1.60;;;;;;;;;;762662;184;636479;-59
2022/02/25 12:37:39;;;;;;;2.50;1.53;;;;;;;;;;755755;184;635039;-60
2022/02/25 12:40:08;;;;;;;2.90;1.77;;;;;;;;;;756523;184;629243;-59
2022/02/25 12:42:31;;;;;;;2.93;1.30;;;;;;;;;;755466;184;619541;-59
2022/02/25 12:44:57;;;;;;;3.83;2.17;;;;;;;;;;753146;184;635507;-59
2022/02/25 12:47:23;;;;;;;5.00;1.83;;;;;;;;;;756373;184;626090;-59
2022/02/25 12:49:49;;;;;;;3.83;1.97;;;;;;;;;;758478;184;630266;-60
2022/02/25 12:52:15;;;;;;;3.80;1.20;;;;;;;;;;751383;185;629642;-59
2022/02/25 12:54:41;;;;;;;5.43;1.43;;;;;;;;;;754885;184;625073;-60
2022/02/25 12:57:07;;;;;;;5.37;1.57;;;;;;;;;;757488;184;625203;-59
2022/02/25 12:59:36;;;;;;;3.90;1.60;;;;;;;;;;760570;184;628812;-59
2022/02/25 13:02:12;;;;;;;2.80;1.43;;;;;;;;;;758181;184;633427;-59
2022/02/25 13:04:39;;;;;;;6.00;1.70;;;;;;;;;;757039;184;619212;-66
2022/02/25 13:07:04;;;;;;;3.83;1.57;;;;;;;;;;758931;184;634271;-60
2022/02/25 13:09:30;;;;;;;3.70;1.50;;;;;;;;;;765982;183;616878;-60
2022/02/25 13:11:56;;;;;;;2.42;1.45;;;;;;;;;;759624;184;621197;-59
2022/02/25 13:14:24;;;;;;;2.20;1.50;;;;;;;;;;757602;184;629338;-60
2022/02/25 13:16:55;;;;;;;2.40;1.30;;;;;;;;;;760172;183;618678;-60
2022/02/25 13:19:21;;;;;;;4.93;1.53;;;;;;;;;;760380;183;638907;-60
2022/02/25 13:21:47;;;;;;;2.83;1.43;;;;;;;;;;752346;183;639297;-60
2022/02/25 13:24:13;;;;;;;3.97;1.53;;;;;;;;;;758542;183;663261;-59
2022/02/25 13:26:40;;;;;;;4.40;1.37;;;;;;;;;;757968;184;634065;-59
2022/02/25 13:29:05;;;;;;;3.30;1.33;;;;;;;;;;762408;184;636139;-59
2022/02/25 13:31:31;;;;;;;2.87;1.30;;;;;;;;;;759281;184;625622;-59
2022/02/25 13:33:57;;;;;;;4.90;2.70;;;;;;;;;;759431;184;623969;-59
2022/02/25 13:36:23;;;;;;;3.60;1.20;;;;;;;;;;754666;184;630733;-60
2022/02/25 13:38:53;;;;;;;4.13;1.73;;;;;;;;;;753563;184;626418;-61
2022/02/25 13:41:19;;;;;;;2.50;1.60;;;;;;;;;;756581;184;615471;-59
2022/02/25 13:43:45;;;;;;;2.30;1.60;;;;;;;;;;759467;184;614787;-59
2022/02/25 13:46:14;;;;;;;5.57;2.60;;;;;;;;;;754130;183;631201;-59
2022/02/25 13:53:42;;;;;;;4.13;1.00;;;;;;;;;;764004;182;628912;-59
2022/02/25 13:56:08;;;;;;;5.10;1.73;;;;;;;;;;754606;184;623053;-59
2022/02/25 13:58:34;;;;;;;4.90;1.93;;;;;;;;;;752647;184;625252;-60
2022/02/25 14:01:00;;;;;;;14.83;6.90;;;;;;;;;;759834;182;644979;-59
2022/02/25 14:03:25;;;;;;;13.07;5.77;;;;;;;;;;754035;184;619361;-59
2022/02/25 14:05:51;;;;;;;15.57;9.50;;;;;;;;;;757623;184;621622;-59
2022/02/25 14:08:17;;;;;;;5.10;2.93;;;;;;;;;;760159;183;616329;-59
2022/02/25 14:10:43;;;;;;;4.97;1.90;;;;;;;;;;752252;183;690216;-60
2022/02/25 14:13:11;;;;;;;3.47;2.20;;;;;;;;;;756692;183;642138;-60
2022/02/25 14:15:37;;;;;;;7.07;3.23;;;;;;;;;;753592;183;638686;-60
2022/02/25 14:18:03;;;;;;;4.00;2.00;;;;;;;;;;761187;184;625769;-59
2022/02/25 14:20:30;;;;;;;2.83;1.70;;;;;;;;;;754362;184;617946;-59
2022/02/25 14:22:57;;;;;;;23.77;16.83;;;;;;;;;;758132;183;626107;-59
2022/02/25 14:25:38;;;;;;;9.80;5.40;;;;;;;;;;760871;184;638486;-59
2022/02/25 14:28:10;;;;;;;12.63;8.00;;;;;;;;;;753786;183;630031;-59
2022/02/25 14:30:42;;;;;;;6.87;4.13;;;;;;;;;;764735;183;616885;-60
2022/02/25 14:33:11;;;;;;;4.10;2.57;;;;;;;;;;752998;184;633007;-59